Time;durP1;ratioP1;P1;durP2;ratioP2;P2;SDS_P1;SDS_P2;PMS_P1;PMS_P2;Temp;Humidity;BMP_temperature;BMP_pressure;BME280_temperature;BME280_humidity;BME280_pressure;Samples;Min_cycle;Max_cycle;Signal;HPM_P1;HPM_P2
2021/12/23 00:00:36;;;;;;;22.88;13.13;;;-1.10;99.90;;;;;;5111126;27;20039;-66
2021/12/23 00:03:03;;;;;;;22.58;12.88;;;-1.00;99.90;;;;;;5129584;27;20042;-66
2021/12/23 00:05:29;;;;;;;20.30;12.05;;;-1.00;99.90;;;;;;5111911;27;20497;-66
2021/12/23 00:07:55;;;;;;;21.55;13.23;;;-0.90;99.90;;;;;;5110390;27;20031;-66
2021/12/23 00:10:20;;;;;;;20.52;12.60;;;-0.90;99.90;;;;;;5111502;27;20042;-66
2021/12/23 00:12:47;;;;;;;17.27;11.27;;;-0.90;99.90;;;;;;5111723;27;20068;-66
2021/12/23 00:25:33;;;;;;;19.80;11.75;;;-0.80;99.90;;;;;;5126668;27;20158;-66
2021/12/23 00:27:59;;;;;;;21.85;12.70;;;-0.80;99.90;;;;;;5110068;27;20352;-66
2021/12/23 00:30:25;;;;;;;20.92;12.27;;;-0.80;99.90;;;;;;5129464;27;20039;-66
2021/12/23 00:32:51;;;;;;;18.77;12.00;;;-0.60;99.90;;;;;;5111421;27;20054;-66
2021/12/23 00:35:17;;;;;;;18.05;11.93;;;-0.90;99.90;;;;;;5109708;27;20035;-66
2021/12/23 00:37:46;;;;;;;19.88;12.70;;;-1.00;99.90;;;;;;5109804;27;20649;-66
2021/12/23 00:40:13;;;;;;;21.15;12.98;;;-0.90;99.90;;;;;;5094494;27;20376;-66
2021/12/23 00:42:40;;;;;;;18.77;12.27;;;-0.90;99.90;;;;;;5110946;27;20073;-65
2021/12/23 00:45:06;;;;;;;19.00;12.52;;;-0.90;99.90;;;;;;5108152;27;20097;-66
2021/12/23 00:47:32;;;;;;;20.42;12.73;;;-0.90;99.90;;;;;;5124817;27;20075;-66
2021/12/23 00:49:58;;;;;;;21.50;12.40;;;-0.90;99.90;;;;;;5110781;27;20063;-66
2021/12/23 00:52:30;;;;;;;23.35;13.13;;;-0.90;99.90;;;;;;5128062;27;20443;-66
2021/12/23 00:54:56;;;;;;;19.02;13.02;;;-0.80;99.90;;;;;;5102647;27;20051;-66
2021/12/23 00:57:29;;;;;;;18.27;11.85;;;-0.70;99.90;;;;;;5101446;27;20698;-66
2021/12/23 00:59:57;;;;;;;21.25;12.35;;;-0.70;99.90;;;;;;5105019;28;20075;-66
2021/12/23 01:02:26;;;;;;;20.42;13.60;;;-0.70;99.90;;;;;;5108818;27;20043;-66
2021/12/23 01:04:52;;;;;;;18.98;12.07;;;-0.50;99.90;;;;;;5108384;27;20036;-65
2021/12/23 01:07:18;;;;;;;17.48;11.35;;;-0.70;99.90;;;;;;5107665;27;20180;-66
2021/12/23 01:09:44;;;;;;;16.75;11.80;;;-0.80;99.90;;;;;;5106910;27;20072;-66
2021/12/23 01:12:12;;;;;;;20.92;12.02;;;-0.80;99.90;;;;;;5109123;27;20049;-66
2021/12/23 01:14:52;;;;;;;23.17;12.73;;;-0.80;99.90;;;;;;5107876;27;20082;-66
2021/12/23 01:19:50;;;;;;;18.77;12.02;;;-0.80;99.90;;;;;;5110334;27;20522;-66
2021/12/23 01:22:17;;;;;;;23.30;12.88;;;-0.80;99.90;;;;;;5108766;27;20095;-66
2021/12/23 01:24:42;;;;;;;22.50;12.68;;;-0.90;99.90;;;;;;5125650;27;20167;-65
2021/12/23 01:27:08;;;;;;;22.23;13.48;;;-0.90;99.90;;;;;;5108883;27;20123;-65
2021/12/23 01:29:34;;;;;;;20.73;12.23;;;-0.90;99.90;;;;;;5105938;27;20064;-66
2021/12/23 01:32:03;;;;;;;24.15;12.93;;;-0.90;99.90;;;;;;5089329;27;20039;-66
2021/12/23 01:34:30;;;;;;;19.63;13.10;;;-0.90;99.90;;;;;;5098200;27;20150;-66
2021/12/23 01:36:57;;;;;;;20.67;12.85;;;-0.80;99.90;;;;;;5103281;27;20078;-66
2021/12/23 01:39:22;;;;;;;21.75;13.38;;;-0.80;99.90;;;;;;5106710;27;20047;-66
2021/12/23 01:41:48;;;;;;;18.45;11.65;;;-0.70;99.90;;;;;;5109391;27;20070;-66
2021/12/23 01:44:14;;;;;;;19.55;11.57;;;-0.70;99.90;;;;;;5124509;27;20043;-66
2021/12/23 01:46:39;;;;;;;18.90;12.10;;;-0.70;99.90;;;;;;5090817;27;20406;-66
2021/12/23 01:49:05;;;;;;;18.42;12.60;;;-0.80;99.90;;;;;;5106139;27;20039;-66
2021/12/23 01:51:32;;;;;;;18.23;12.30;;;-0.60;99.90;;;;;;5108558;27;20055;-66
2021/12/23 01:53:57;;;;;;;20.77;11.63;;;-0.80;99.90;;;;;;5126629;27;20043;-66
2021/12/23 01:56:27;;;;;;;19.98;13.02;;;-0.70;99.90;;;;;;5105448;27;20043;-66
2021/12/23 01:58:53;;;;;;;19.10;12.07;;;-0.70;99.90;;;;;;5109538;27;20485;-66
2021/12/23 02:01:19;;;;;;;19.55;12.43;;;-0.80;99.90;;;;;;5108493;27;20555;-66
2021/12/23 02:03:45;;;;;;;20.88;12.13;;;-0.70;99.90;;;;;;5105977;27;20133;-66
2021/12/23 02:06:10;;;;;;;20.00;12.27;;;-0.80;99.90;;;;;;5125797;27;20071;-66
2021/12/23 02:08:37;;;;;;;21.75;12.50;;;-0.80;99.90;;;;;;5104203;27;20114;-66
2021/12/23 02:11:05;;;;;;;18.10;11.93;;;-0.80;99.90;;;;;;5105840;27;20039;-66
2021/12/23 02:13:32;;;;;;;20.23;12.40;;;-0.80;99.90;;;;;;5109698;27;20071;-66
2021/12/23 02:15:58;;;;;;;23.02;13.38;;;-0.80;99.90;;;;;;5108416;27;20047;-66
2021/12/23 02:18:24;;;;;;;19.02;12.55;;;-0.80;99.90;;;;;;5108865;27;20058;-66
2021/12/23 02:20:50;;;;;;;22.38;13.43;;;-0.80;99.90;;;;;;5107936;27;20458;-66
2021/12/23 02:23:15;;;;;;;21.13;12.88;;;-0.80;99.90;;;;;;5109049;27;20054;-66
2021/12/23 02:25:41;;;;;;;21.40;13.15;;;-0.70;99.90;;;;;;5108364;27;20046;-66
2021/12/23 02:28:10;;;;;;;23.42;12.82;;;-0.60;99.90;;;;;;5109334;27;20051;-66
2021/12/23 02:30:39;;;;;;;19.85;13.35;;;-0.60;99.90;;;;;;5124883;27;20593;-66
2021/12/23 02:33:06;;;;;;;23.83;14.70;;;-0.60;99.90;;;;;;5104025;27;20063;-66
2021/12/23 02:35:33;;;;;;;21.63;13.75;;;-0.60;99.90;;;;;;5106925;27;20035;-66
2021/12/23 02:37:58;;;;;;;22.15;13.30;;;-0.60;99.90;;;;;;5103529;27;20048;-66
2021/12/23 02:40:37;;;;;;;22.10;13.45;;;-0.60;99.90;;;;;;5102944;27;20061;-66
2021/12/23 02:43:10;;;;;;;22.23;13.60;;;-0.60;99.90;;;;;;5104282;27;20076;-66
2021/12/23 02:45:37;;;;;;;22.17;13.25;;;-0.50;99.90;;;;;;5084792;28;20172;-66
2021/12/23 02:48:03;;;;;;;21.05;12.85;;;-0.50;99.90;;;;;;5087500;27;20073;-66
2021/12/23 02:50:29;;;;;;;21.15;13.93;;;-0.40;99.90;;;;;;5107041;28;20043;-66
2021/12/23 02:52:58;;;;;;;20.42;12.95;;;-0.40;99.90;;;;;;5107384;27;20047;-66
2021/12/23 02:55:24;;;;;;;21.75;13.85;;;-0.50;99.90;;;;;;5107895;27;20047;-66
2021/12/23 02:57:49;;;;;;;23.70;13.82;;;-0.50;99.90;;;;;;5102549;28;20380;-66
2021/12/23 03:00:16;;;;;;;20.42;12.95;;;-0.50;99.90;;;;;;5098927;28;20370;-66
2021/12/23 03:02:41;;;;;;;22.40;13.30;;;-0.50;99.90;;;;;;5107453;28;20044;-66
2021/12/23 03:05:08;;;;;;;23.52;14.80;;;-0.50;99.90;;;;;;5107616;28;20042;-66
2021/12/23 03:07:34;;;;;;;21.88;13.70;;;-0.50;99.90;;;;;;5107599;28;20043;-66
2021/12/23 03:10:00;;;;;;;25.75;13.38;;;-0.50;99.90;;;;;;5107896;28;20039;-66
2021/12/23 03:12:26;;;;;;;22.25;13.13;;;-0.50;99.90;;;;;;5106832;28;20046;-66
2021/12/23 03:14:52;;;;;;;22.45;13.98;;;-0.50;99.90;;;;;;5107011;28;20039;-66
2021/12/23 03:17:18;;;;;;;24.23;14.40;;;-0.50;99.90;;;;;;5106067;28;20038;-66
2021/12/23 03:19:43;;;;;;;21.92;14.38;;;-0.60;99.90;;;;;;5106008;28;20043;-66
2021/12/23 03:22:09;;;;;;;22.55;14.60;;;-0.60;99.90;;;;;;5106681;28;20738;-66
2021/12/23 03:24:34;;;;;;;22.90;14.45;;;-0.50;99.90;;;;;;5105808;28;20459;-66
2021/12/23 03:27:00;;;;;;;22.42;14.00;;;-0.50;99.90;;;;;;5102104;28;20047;-65
2021/12/23 03:29:26;;;;;;;22.27;13.30;;;-0.50;99.90;;;;;;5103950;28;20066;-66
2021/12/23 03:31:52;;;;;;;23.38;14.77;;;-0.50;99.90;;;;;;5105837;28;20078;-66
2021/12/23 03:34:17;;;;;;;23.45;14.75;;;-0.40;99.90;;;;;;5124909;28;20039;-66
2021/12/23 03:36:43;;;;;;;25.08;14.93;;;-0.40;99.90;;;;;;5106365;28;20037;-66
2021/12/23 03:39:09;;;;;;;21.83;14.30;;;-1.20;99.90;;;;;;5124362;28;20039;-66
2021/12/23 03:41:35;;;;;;;25.00;14.65;;;-0.50;99.90;;;;;;5103154;28;20035;-66
2021/12/23 03:44:00;;;;;;;21.50;14.82;;;-0.50;99.90;;;;;;5086802;28;20039;-66
2021/12/23 03:46:26;;;;;;;23.45;14.88;;;-0.30;99.90;;;;;;5105895;28;20027;-66
2021/12/23 03:48:52;;;;;;;24.88;15.25;;;-0.50;99.90;;;;;;5122711;28;20042;-66
2021/12/23 03:51:19;;;;;;;29.02;14.95;;;-0.40;99.90;;;;;;5095590;28;20085;-66
2021/12/23 03:53:44;;;;;;;28.27;16.45;;;-0.40;99.90;;;;;;5104438;28;20039;-65
2021/12/23 03:56:10;;;;;;;26.98;15.95;;;-0.40;99.90;;;;;;5102521;28;20072;-66
2021/12/23 03:58:36;;;;;;;23.83;14.80;;;-0.30;99.90;;;;;;5101894;28;20031;-66
2021/12/23 04:01:03;;;;;;;24.45;15.38;;;-0.30;99.90;;;;;;5104251;28;20043;-66
2021/12/23 04:03:29;;;;;;;26.75;15.23;;;-0.30;99.90;;;;;;5105025;27;20083;-66
2021/12/23 04:05:55;;;;;;;27.95;15.98;;;-0.30;99.90;;;;;;5103543;27;20035;-66
2021/12/23 04:08:21;;;;;;;26.73;16.10;;;-0.30;99.90;;;;;;5099993;27;20044;-66
2021/12/23 04:10:46;;;;;;;26.55;16.02;;;-0.30;99.90;;;;;;5126025;27;20054;-66
2021/12/23 04:13:12;;;;;;;23.67;15.43;;;0.00;99.90;;;;;;5128258;27;20398;-66
2021/12/23 04:15:38;;;;;;;29.02;15.68;;;-0.20;99.90;;;;;;5109013;27;20039;-66
2021/12/23 04:18:04;;;;;;;25.58;15.55;;;-0.20;99.90;;;;;;5107732;27;20043;-66
2021/12/23 04:20:34;;;;;;;26.10;15.77;;;-0.20;99.90;;;;;;5107022;27;20074;-66
2021/12/23 04:23:00;;;;;;;26.25;16.27;;;0.10;99.90;;;;;;5104183;27;20039;-66
2021/12/23 04:25:28;;;;;;;27.73;16.65;;;-0.10;99.90;;;;;;5088294;27;20101;-66
2021/12/23 04:27:57;;;;;;;27.50;15.95;;;-0.20;99.90;;;;;;5104163;27;20046;-66
2021/12/23 04:30:24;;;;;;;30.15;16.25;;;-0.10;99.90;;;;;;5125103;27;20046;-66
2021/12/23 04:32:50;;;;;;;24.85;15.57;;;-0.10;99.90;;;;;;5107518;27;20554;-65
2021/12/23 04:35:15;;;;;;;24.55;15.85;;;-0.10;99.90;;;;;;5105020;27;20031;-66
2021/12/23 04:37:41;;;;;;;26.33;16.30;;;-0.10;99.90;;;;;;5102419;27;20445;-66
2021/12/23 04:40:10;;;;;;;26.55;15.93;;;0.00;99.90;;;;;;5104931;27;20046;-66
2021/12/23 04:42:35;;;;;;;27.63;16.30;;;0.00;99.90;;;;;;5109238;27;20075;-66
2021/12/23 04:45:01;;;;;;;29.33;16.58;;;0.00;99.90;;;;;;5088074;27;20114;-66
2021/12/23 04:47:27;;;;;;;26.50;16.13;;;0.10;99.90;;;;;;5103830;27;20338;-66
2021/12/23 04:49:53;;;;;;;26.77;16.67;;;0.10;99.90;;;;;;5125763;27;20117;-66
2021/12/23 04:52:19;;;;;;;27.67;17.17;;;0.10;99.90;;;;;;5109322;27;20067;-66
2021/12/23 04:54:44;;;;;;;28.45;15.18;;;0.10;99.90;;;;;;5103733;27;20039;-66
2021/12/23 04:57:10;;;;;;;27.42;16.42;;;0.10;99.90;;;;;;5103871;27;20393;-66
2021/12/23 04:59:36;;;;;;;29.23;17.52;;;0.40;99.90;;;;;;5125286;27;20091;-66
2021/12/23 05:02:01;;;;;;;25.60;16.83;;;0.20;99.90;;;;;;5106629;27;20039;-66
2021/12/23 05:04:27;;;;;;;25.83;16.15;;;0.20;99.90;;;;;;5110413;27;20521;-66
2021/12/23 05:06:53;;;;;;;27.02;16.90;;;0.20;99.90;;;;;;5108731;27;20035;-66
2021/12/23 05:09:19;;;;;;;26.20;16.58;;;0.20;99.90;;;;;;5091845;27;20716;-66
2021/12/23 05:11:44;;;;;;;30.60;17.95;;;0.20;99.90;;;;;;5092704;27;20039;-66
2021/12/23 05:14:11;;;;;;;28.35;16.85;;;0.20;99.90;;;;;;5108764;27;20502;-66
2021/12/23 05:16:37;;;;;;;27.63;17.42;;;0.20;99.90;;;;;;5108893;27;20133;-66
2021/12/23 05:19:03;;;;;;;25.85;16.63;;;0.20;99.90;;;;;;5106970;27;20042;-66
2021/12/23 05:21:29;;;;;;;27.02;16.77;;;0.20;99.90;;;;;;5109133;27;20184;-66
2021/12/23 05:23:55;;;;;;;25.40;15.35;;;0.20;99.90;;;;;;5126952;27;20134;-66
2021/12/23 05:26:21;;;;;;;27.63;16.73;;;0.30;99.90;;;;;;5106249;27;20467;-66
2021/12/23 05:28:46;;;;;;;27.80;16.42;;;0.20;99.90;;;;;;5108339;27;20046;-66
2021/12/23 05:31:12;;;;;;;29.75;16.92;;;0.20;99.90;;;;;;5074819;27;20431;-66
2021/12/23 05:33:38;;;;;;;28.77;16.98;;;0.20;99.90;;;;;;5103788;27;20381;-66
2021/12/23 05:36:04;;;;;;;25.83;16.85;;;0.20;99.90;;;;;;5102590;27;20039;-66
2021/12/23 05:38:29;;;;;;;27.55;17.38;;;0.20;99.90;;;;;;5103745;27;20497;-66
2021/12/23 05:40:55;;;;;;;26.25;17.52;;;0.20;99.90;;;;;;5121507;27;20039;-66
2021/12/23 05:43:21;;;;;;;28.15;16.83;;;0.20;99.90;;;;;;5100791;27;20409;-66
2021/12/23 05:45:47;;;;;;;27.80;16.08;;;0.20;99.90;;;;;;5105105;27;20612;-66
2021/12/23 05:48:13;;;;;;;26.00;16.77;;;0.30;99.90;;;;;;5107039;27;20047;-66
2021/12/23 05:50:39;;;;;;;26.63;16.98;;;0.20;99.90;;;;;;5091231;27;20035;-66
2021/12/23 05:53:04;;;;;;;31.00;17.58;;;0.20;99.90;;;;;;5089750;27;20150;-66
2021/12/23 05:55:30;;;;;;;25.05;16.00;;;0.10;99.90;;;;;;5125645;27;20366;-66
2021/12/23 05:57:56;;;;;;;26.75;17.02;;;0.10;99.90;;;;;;5100407;27;20121;-66
2021/12/23 06:00:28;;;;;;;28.67;17.10;;;0.10;99.90;;;;;;5107401;27;20382;-66
2021/12/23 06:02:54;;;;;;;27.50;17.80;;;0.10;99.90;;;;;;5125678;27;20031;-66
2021/12/23 06:05:20;;;;;;;27.75;16.25;;;0.10;99.90;;;;;;5105742;27;20050;-66
2021/12/23 06:07:47;;;;;;;27.45;17.67;;;0.10;99.90;;;;;;5105782;27;20047;-65
2021/12/23 06:10:14;;;;;;;28.95;17.63;;;0.10;99.90;;;;;;5097982;27;20122;-66
2021/12/23 06:12:41;;;;;;;25.02;16.33;;;0.20;99.90;;;;;;5108017;27;20035;-66
2021/12/23 06:15:08;;;;;;;26.30;17.35;;;0.20;99.90;;;;;;5106887;27;20043;-66
2021/12/23 06:17:34;;;;;;;26.08;16.13;;;0.20;99.90;;;;;;5102167;27;20104;-66
2021/12/23 06:20:01;;;;;;;29.63;17.15;;;0.20;99.90;;;;;;5084853;27;20039;-66
2021/12/23 06:22:27;;;;;;;29.58;17.70;;;0.20;99.90;;;;;;5107697;27;20035;-66
2021/12/23 06:24:53;;;;;;;28.67;17.45;;;0.20;99.90;;;;;;5124802;27;20072;-66
2021/12/23 06:27:19;;;;;;;24.90;16.17;;;0.20;99.90;;;;;;5090306;27;20035;-66
2021/12/23 06:29:45;;;;;;;26.88;17.67;;;0.30;99.90;;;;;;5102904;28;20122;-66
2021/12/23 06:32:12;;;;;;;29.25;17.50;;;0.30;99.90;;;;;;5105803;27;20531;-66
2021/12/23 06:34:38;;;;;;;28.90;17.45;;;0.30;99.90;;;;;;5103215;27;20043;-66
2021/12/23 06:37:04;;;;;;;25.95;17.33;;;0.30;99.90;;;;;;5106084;27;20023;-66
2021/12/23 06:39:34;;;;;;;26.08;17.10;;;0.30;99.90;;;;;;5106463;27;20039;-66
2021/12/23 06:42:00;;;;;;;26.92;16.10;;;0.30;99.90;;;;;;5105748;27;20055;-66
2021/12/23 06:44:26;;;;;;;27.23;17.05;;;0.30;99.90;;;;;;5105237;27;20039;-66
2021/12/23 06:46:52;;;;;;;30.15;17.98;;;0.30;99.90;;;;;;5100688;27;20429;-66
2021/12/23 06:49:17;;;;;;;30.92;17.63;;;0.30;99.90;;;;;;5104787;27;20047;-66
2021/12/23 06:51:44;;;;;;;29.27;17.33;;;0.30;99.90;;;;;;5089138;27;20031;-66
2021/12/23 06:54:13;;;;;;;27.13;17.27;;;0.30;99.90;;;;;;5122804;27;20051;-66
2021/12/23 06:56:39;;;;;;;28.73;18.02;;;0.30;99.90;;;;;;5102670;28;20070;-66
2021/12/23 06:59:05;;;;;;;28.95;17.20;;;0.30;99.90;;;;;;5101715;28;20089;-66
2021/12/23 07:01:31;;;;;;;28.15;17.35;;;0.30;99.90;;;;;;5124680;27;20092;-66
2021/12/23 07:04:08;;;;;;;28.27;16.90;;;0.40;99.90;;;;;;5119477;27;20088;-66
2021/12/23 07:06:35;;;;;;;22.40;15.68;;;0.40;99.90;;;;;;5107199;28;20066;-65
2021/12/23 07:09:05;;;;;;;27.80;18.13;;;0.40;99.90;;;;;;5104582;28;20031;-66
2021/12/23 07:11:34;;;;;;;27.77;17.67;;;0.40;99.90;;;;;;5124150;28;20432;-66
2021/12/23 07:13:59;;;;;;;30.95;17.88;;;0.40;99.90;;;;;;5123806;28;20445;-66
2021/12/23 07:16:25;;;;;;;27.83;17.58;;;0.40;99.90;;;;;;5104764;28;20040;-65
2021/12/23 07:18:51;;;;;;;28.15;17.40;;;0.40;99.90;;;;;;5107098;28;20042;-66
2021/12/23 07:21:17;;;;;;;27.58;17.05;;;0.40;99.90;;;;;;5085658;28;20479;-66
2021/12/23 07:23:43;;;;;;;29.00;18.50;;;0.40;99.90;;;;;;5104008;28;20051;-66
2021/12/23 07:26:08;;;;;;;27.35;17.70;;;0.40;99.90;;;;;;5103711;28;20118;-66
2021/12/23 07:28:34;;;;;;;29.95;17.88;;;1.20;99.90;;;;;;5105451;28;20427;-66
2021/12/23 07:31:00;;;;;;;25.88;17.25;;;0.60;99.90;;;;;;5101471;28;20502;-66
2021/12/23 07:33:26;;;;;;;26.95;18.08;;;1.80;99.90;;;;;;5099275;28;20043;-66
2021/12/23 07:35:51;;;;;;;30.33;18.55;;;0.40;99.90;;;;;;5086172;27;20046;-66
2021/12/23 07:38:17;;;;;;;28.50;18.45;;;0.40;99.90;;;;;;5105932;27;20047;-66
2021/12/23 07:40:43;;;;;;;31.13;17.90;;;0.40;99.90;;;;;;5106573;27;20467;-66
2021/12/23 07:45:54;;;;;;;32.55;19.00;;;0.40;99.90;;;;;;5054992;27;20058;-66
2021/12/23 07:48:20;;;;;;;34.30;20.33;;;0.40;99.90;;;;;;5122340;27;20860;-66
2021/12/23 07:50:46;;;;;;;32.58;18.92;;;0.40;99.90;;;;;;5127135;27;20035;-66
2021/12/23 07:53:11;;;;;;;32.25;19.48;;;0.40;99.90;;;;;;5109124;27;20058;-65
2021/12/23 07:55:39;;;;;;;34.58;21.30;;;0.40;99.90;;;;;;5107913;27;20083;-67
2021/12/23 07:58:04;;;;;;;35.28;20.65;;;0.40;99.90;;;;;;5107431;27;20117;-67
2021/12/23 08:00:30;;;;;;;34.75;21.45;;;0.40;99.90;;;;;;5106698;27;20156;-67
2021/12/23 08:02:57;;;;;;;37.03;20.77;;;0.40;99.90;;;;;;5127874;27;20031;-67
2021/12/23 08:05:23;;;;;;;40.15;23.00;;;0.40;99.90;;;;;;5089611;27;20042;-67
2021/12/23 08:07:48;;;;;;;42.53;23.05;;;0.50;99.90;;;;;;5102893;27;20468;-67
2021/12/23 08:10:14;;;;;;;35.50;22.58;;;0.50;99.90;;;;;;5105968;27;20142;-67
2021/12/23 08:12:40;;;;;;;40.42;23.27;;;0.40;99.90;;;;;;5106093;27;20047;-67
2021/12/23 08:15:06;;;;;;;40.55;22.85;;;0.40;99.90;;;;;;5109221;27;20429;-67
2021/12/23 08:17:32;;;;;;;41.25;23.48;;;0.40;99.90;;;;;;5091255;27;20038;-67
2021/12/23 08:19:58;;;;;;;38.03;23.05;;;0.40;99.90;;;;;;5106889;27;20043;-67
2021/12/23 08:22:23;;;;;;;42.08;24.08;;;0.40;99.90;;;;;;5101896;27;20051;-67
2021/12/23 08:24:49;;;;;;;40.65;23.92;;;0.40;99.90;;;;;;5107378;27;20558;-67
2021/12/23 08:27:15;;;;;;;42.63;23.92;;;0.40;99.90;;;;;;5126369;27;20122;-67
2021/12/23 08:29:40;;;;;;;41.25;24.48;;;0.40;99.90;;;;;;5088892;27;20027;-67
2021/12/23 08:32:06;;;;;;;44.42;24.85;;;0.40;99.90;;;;;;5085427;27;20391;-67
2021/12/23 08:34:34;;;;;;;42.10;23.85;;;0.40;99.90;;;;;;5103986;27;20092;-67
2021/12/23 08:37:00;;;;;;;44.17;23.80;;;0.40;99.90;;;;;;5102268;27;20045;-67
2021/12/23 08:39:26;;;;;;;44.35;25.58;;;0.40;99.90;;;;;;5101382;27;20447;-67
2021/12/23 08:41:52;;;;;;;43.55;24.92;;;0.40;99.90;;;;;;5101619;27;20114;-67
2021/12/23 08:44:18;;;;;;;46.88;26.05;;;0.40;99.90;;;;;;5109587;27;20065;-67
2021/12/23 08:46:43;;;;;;;45.80;25.27;;;0.40;99.90;;;;;;5105251;27;20043;-67
2021/12/23 08:49:09;;;;;;;46.10;25.63;;;0.40;99.90;;;;;;5105525;27;20047;-67
2021/12/23 08:51:36;;;;;;;45.10;24.80;;;0.40;99.90;;;;;;5109559;27;20467;-67
2021/12/23 08:54:03;;;;;;;48.78;27.08;;;0.40;99.90;;;;;;5105759;27;20535;-67
2021/12/23 08:56:29;;;;;;;48.17;26.98;;;0.40;99.90;;;;;;5090800;27;20047;-67
2021/12/23 08:58:55;;;;;;;46.53;25.88;;;0.40;99.90;;;;;;5126687;27;20069;-67
2021/12/23 09:01:21;;;;;;;51.17;26.55;;;0.40;99.90;;;;;;5104074;27;20090;-67
2021/12/23 09:03:47;;;;;;;51.80;27.83;;;0.50;99.90;;;;;;5107128;27;20063;-67
2021/12/23 09:06:12;;;;;;;51.17;28.05;;;0.50;99.90;;;;;;5105959;27;20057;-67
2021/12/23 09:08:38;;;;;;;51.33;27.75;;;0.50;99.90;;;;;;5104144;27;20058;-67
2021/12/23 09:11:04;;;;;;;49.72;26.73;;;0.50;99.90;;;;;;5105519;27;20585;-67
2021/12/23 09:13:30;;;;;;;49.20;27.17;;;0.50;99.90;;;;;;5106814;27;20067;-67
2021/12/23 09:15:57;;;;;;;47.92;26.60;;;0.50;99.90;;;;;;5083896;27;20076;-67
2021/12/23 09:18:24;;;;;;;54.63;28.30;;;0.10;99.90;;;;;;5097292;27;20100;-67
2021/12/23 09:20:50;;;;;;;52.53;27.73;;;0.50;99.90;;;;;;5121194;27;20588;-67
2021/12/23 09:23:16;;;;;;;53.13;29.60;;;0.50;99.90;;;;;;5102898;28;20059;-67
2021/12/23 09:25:42;;;;;;;51.70;27.58;;;0.60;99.90;;;;;;5094591;28;20047;-67
2021/12/23 09:33:24;;;;;;;46.75;26.55;;;0.60;99.90;;;;;;5101748;28;20061;-67
2021/12/23 09:35:50;;;;;;;61.67;29.65;;;0.60;99.90;;;;;;5090422;28;20052;-67
2021/12/23 09:38:19;;;;;;;55.33;29.80;;;0.60;99.90;;;;;;5076525;28;20035;-67
2021/12/23 09:40:47;;;;;;;52.17;27.65;;;0.60;99.90;;;;;;5097687;28;20842;-67
2021/12/23 09:43:13;;;;;;;55.45;28.95;;;0.70;99.90;;;;;;5096826;28;20036;-67
2021/12/23 09:45:41;;;;;;;54.72;27.88;;;0.70;99.90;;;;;;5098394;28;20150;-67
2021/12/23 09:48:08;;;;;;;57.58;30.67;;;0.70;99.90;;;;;;5092868;28;20028;-67
2021/12/23 09:50:37;;;;;;;63.00;29.85;;;0.70;99.90;;;;;;5081912;28;20712;-68
2021/12/23 09:53:05;;;;;;;54.63;28.67;;;0.70;99.90;;;;;;5099361;28;20031;-66
2021/12/23 09:55:35;;;;;;;113.38;66.40;;;0.70;99.90;;;;;;5091220;28;20121;-66
2021/12/23 09:58:01;;;;;;;59.63;29.05;;;0.70;99.90;;;;;;5096795;28;20048;-66
2021/12/23 10:00:30;;;;;;;53.15;27.60;;;0.80;99.90;;;;;;5083125;28;20043;-66
2021/12/23 10:02:56;;;;;;;52.30;29.30;;;1.40;99.90;;;;;;5075172;28;20383;-66
2021/12/23 10:05:25;;;;;;;59.38;30.45;;;0.80;99.90;;;;;;5077729;28;20530;-65
2021/12/23 10:07:53;;;;;;;53.58;28.83;;;0.80;99.90;;;;;;5098026;28;20039;-66
2021/12/23 10:10:27;;;;;;;53.58;27.92;;;0.80;99.90;;;;;;5093817;27;20513;-66
2021/12/23 10:38:58;;;;;;;47.95;26.40;;;0.90;99.90;;;;;;5100838;27;20062;-65
2021/12/23 10:41:27;;;;;;;51.55;27.80;;;1.00;99.90;;;;;;5099960;27;20074;-65
2021/12/23 10:44:02;;;;;;;52.88;28.83;;;1.00;99.90;;;;;;5112666;27;20767;-66
2021/12/23 10:46:40;;;;;;;52.33;29.20;;;1.00;99.90;;;;;;5103352;27;20478;-66
2021/12/23 10:49:31;;;;;;;56.42;29.40;;;1.00;99.90;;;;;;5094845;27;20138;-66
2021/12/23 10:52:06;;;;;;;57.22;29.58;;;1.00;99.90;;;;;;5100484;28;20035;-66
2021/12/23 11:00:29;;;;;;;56.90;28.00;;;1.10;99.90;;;;;;5105323;27;20050;-66
2021/12/23 11:03:39;;;;;;;56.88;28.98;;;1.10;99.90;;;;;;5098327;27;20052;-67
2021/12/23 11:28:08;;;;;;;56.22;28.52;;;1.20;99.90;;;;;;5125566;27;20038;-67
2021/12/23 11:43:58;;;;;;;63.13;29.55;;;1.20;99.90;;;;;;5108916;27;20606;-67
2021/12/23 11:46:43;;;;;;;54.78;28.45;;;1.30;99.90;;;;;;5106379;27;20578;-67
2021/12/23 11:49:12;;;;;;;50.58;28.63;;;1.20;99.90;;;;;;5107212;27;20031;-67
2021/12/23 11:54:06;;;;;;;60.63;28.77;;;1.30;99.90;;;;;;5105040;28;20123;-68
2021/12/23 11:56:38;;;;;;;54.72;29.52;;;1.30;99.90;;;;;;5112081;27;20149;-68
2021/12/23 11:59:05;;;;;;;59.88;28.83;;;1.30;99.90;;;;;;5127323;27;20422;-68
2021/12/23 12:02:00;;;;;;;55.42;27.67;;;1.30;99.90;;;;;;5110961;27;20051;-68
2021/12/23 12:04:35;;;;;;;57.17;29.15;;;1.50;99.90;;;;;;5109820;27;20043;-68
2021/12/23 12:07:01;;;;;;;57.22;28.90;;;1.30;99.90;;;;;;5105452;27;20039;-67
2021/12/23 12:09:31;;;;;;;62.30;29.90;;;1.30;99.90;;;;;;5108380;27;20091;-68
2021/12/23 12:12:05;;;;;;;54.97;28.40;;;1.30;99.90;;;;;;5110020;27;20039;-68
2021/12/23 12:14:39;;;;;;;57.30;29.90;;;1.30;99.90;;;;;;5092506;27;20051;-68
2021/12/23 12:17:23;;;;;;;62.20;30.60;;;1.30;99.90;;;;;;5108949;27;20042;-68
2021/12/23 12:19:58;;;;;;;61.60;30.58;;;1.30;99.90;;;;;;5107117;27;20039;-69
2021/12/23 12:22:47;;;;;;;62.85;30.58;;;1.50;99.90;;;;;;5109160;27;20046;-68
2021/12/23 12:25:38;;;;;;;60.22;30.33;;;1.30;99.90;;;;;;5101538;27;20475;-69
2021/12/23 12:28:04;;;;;;;57.08;29.83;;;1.30;99.90;;;;;;5128625;27;20035;-69
2021/12/23 12:30:43;;;;;;;51.83;28.15;;;1.30;99.90;;;;;;5108222;27;20092;-68
2021/12/23 12:33:11;;;;;;;71.25;29.95;;;1.30;99.90;;;;;;5128735;27;20443;-69
2021/12/23 12:35:37;;;;;;;58.15;29.23;;;1.30;99.90;;;;;;5109985;27;20453;-69
2021/12/23 12:38:11;;;;;;;62.17;29.58;;;1.30;99.90;;;;;;5092877;27;20436;-69
2021/12/23 12:41:00;;;;;;;63.17;29.48;;;1.30;99.90;;;;;;5108173;27;20336;-69
2021/12/23 12:43:33;;;;;;;56.60;28.80;;;1.30;99.90;;;;;;5109713;27;20188;-69
2021/12/23 12:45:59;;;;;;;61.08;29.90;;;1.30;99.90;;;;;;5108795;27;20050;-70
2021/12/23 12:48:56;;;;;;;57.22;28.75;;;1.30;99.90;;;;;;5090434;27;20031;-69
2021/12/23 12:51:38;;;;;;;62.15;29.30;;;1.20;99.90;;;;;;5108632;27;20043;-69
2021/12/23 12:54:07;;;;;;;58.55;28.73;;;1.20;99.90;;;;;;5105019;27;20046;-70
2021/12/23 12:56:58;;;;;;;56.38;28.55;;;1.20;99.90;;;;;;5126260;27;20082;-69
2021/12/23 12:59:27;;;;;;;59.50;29.63;;;1.20;99.90;;;;;;5105855;27;20119;-69
2021/12/23 13:01:54;;;;;;;56.13;28.77;;;1.30;99.90;;;;;;5110080;27;20123;-69
2021/12/23 13:04:40;;;;;;;58.42;29.48;;;1.30;99.90;;;;;;5108534;27;20047;-69
2021/12/23 13:07:23;;;;;;;55.90;29.05;;;1.30;99.90;;;;;;5103797;27;20035;-68
2021/12/23 13:10:16;;;;;;;61.08;29.70;;;1.30;99.90;;;;;;5108972;27;20386;-69
2021/12/23 13:12:54;;;;;;;57.38;28.92;;;1.30;99.90;;;;;;5103983;27;20486;-68
2021/12/23 13:15:30;;;;;;;55.67;28.50;;;1.40;99.90;;;;;;5123874;27;20422;-69
2021/12/23 13:17:58;;;;;;;64.40;30.50;;;1.40;99.90;;;;;;5103953;27;20360;-69
2021/12/23 13:20:58;;;;;;;63.72;29.70;;;1.40;99.90;;;;;;5104213;27;20164;-69
2021/12/23 13:23:33;;;;;;;55.70;27.30;;;1.40;99.90;;;;;;5125155;27;20077;-69
2021/12/23 13:26:06;;;;;;;57.30;28.40;;;1.40;99.90;;;;;;5097463;27;20047;-69
2021/12/23 13:28:42;;;;;;;61.03;29.15;;;1.40;99.90;;;;;;5106172;27;20312;-70
2021/12/23 13:31:09;;;;;;;66.03;30.67;;;1.40;99.90;;;;;;5104880;27;20039;-68
2021/12/23 13:33:42;;;;;;;61.55;30.77;;;1.80;99.90;;;;;;5104090;27;20043;-69
2021/12/23 13:36:28;;;;;;;55.05;29.33;;;1.50;99.90;;;;;;5088043;27;20510;-69
2021/12/23 13:39:00;;;;;;;63.75;29.40;;;1.50;99.90;;;;;;5085278;27;20467;-69
2021/12/23 13:41:29;;;;;;;60.63;30.77;;;1.50;99.90;;;;;;5101313;27;20446;-69
2021/12/23 13:44:16;;;;;;;56.28;29.90;;;1.60;99.90;;;;;;5106830;27;20042;-69
2021/12/23 13:47:11;;;;;;;58.15;28.70;;;1.60;99.90;;;;;;5108254;27;20039;-69
2021/12/23 13:49:38;;;;;;;59.13;29.70;;;1.60;99.90;;;;;;5096671;27;20100;-69
2021/12/23 13:52:08;;;;;;;58.60;29.33;;;1.60;99.90;;;;;;5108487;27;20035;-69
2021/12/23 13:54:37;;;;;;;62.08;30.25;;;1.60;99.90;;;;;;5100746;27;20050;-68
2021/12/23 13:57:12;;;;;;;60.13;31.13;;;2.30;99.90;;;;;;5109947;27;20475;-69
2021/12/23 13:59:48;;;;;;;62.75;30.08;;;1.70;99.90;;;;;;5125663;27;20064;-69
2021/12/23 14:02:17;;;;;;;60.60;29.67;;;2.50;99.90;;;;;;5123090;27;20467;-69
2021/12/23 14:04:59;;;;;;;65.25;32.15;;;1.70;99.90;;;;;;5124436;27;20483;-70
2021/12/23 14:07:31;;;;;;;58.15;29.35;;;1.70;99.90;;;;;;5122693;27;20066;-67
2021/12/23 14:10:16;;;;;;;57.25;29.65;;;1.70;99.90;;;;;;5101428;28;20036;-67